Terminal Aerodrome Forecast
Issued by NWS

Home | Current Version | Previous Version | Text Only | Print | Product List | Glossary On
Versions: 1 2 3 4 5 6 7 8 9 10 11 12 13 14 15 16 17 18 19 20 21 22 23 24 25 26 27 28 29 30 31 32 33 34 35 36 37 38 39 40 41 42 43 44 45 46 47 48 49
292
FTUS45 KGJT 240616 AAA
TAFEGE
TAF AMD
KEGE 240616Z 2406/2506 13006KT P6SM VCSH SCT015 BKN050
      TEMPO 2406/2408 1 1/2SM -SN BR OVC008
     FM240800 VRB03KT P6SM VCSH OVC040
      TEMPO 2408/2412 3SM -SHSN OVC025
     FM241900 25008KT 3SM -SN BKN020
     FM250100 VRB03KT P6SM VCSH BKN015
      AMD LTD TO CLD VIS AND WIND TIL 241300=

USA.gov is the U.S. government's official web portal to all federal, state and local government web resources and services.